METAR AND TAF INFORMATION
METAR FOR NWWW
ADDS - METARS form results

(2220 UTC 25 March 2019)
Data provider http://aviationweather.gov/metar/data/
 
METAR text: NWWW 252200Z AUTO 12005KT 080V170 9999 FEW052/// 27/20 Q1015 NOSIG
Conditions at: NWWW (LA TONTOUTA NLLE, WS) observed 2200 UTC 25 March 2019
Temperature: 27.0°C (81°F)
Dewpoint: 20.0°C (68°F) [RH = 66%]
Pressure (altimeter): 29.97 inches Hg (1015.0 mb)
Winds: from the ESE (120 degrees) at 6 MPH (5 knots; 2.6 m/s)
Visibility: 6 or more miles (10+ km)
Ceiling: at least 12,000 feet AGL
Clouds: few clouds at 5200 feet AGL
Weather: no significant weather observed at this time

METAR text: NWWW 252130Z AUTO VRB03KT CAVOK 26/19 Q1015 NOSIG
Conditions at: NWWW (LA TONTOUTA NLLE, WS) observed 2130 UTC 25 March 2019
Temperature: 26.0°C (79°F)
Dewpoint: 19.0°C (66°F) [RH = 65%]
Pressure (altimeter): 29.97 inches Hg (1015.0 mb)
Winds: variable direction winds at 3 MPH (3 knots; 1.5 m/s)
Visibility: 6 or more miles (10+ km)
Ceiling: ceiling and visibility are OK
Clouds: unknown
Weather: no significant weather observed at this time

Forecast for: NWWW (LA TONTOUTA NLLE, WS)
Text: TAF NWWW 251700Z 2518/2618 VRB02KT 9999 FEW045
Forecast period: 1800 UTC 25 March 2019 to 1800 UTC 26 March 2019
Forecast type: FROM: standard forecast or significant change
Winds: variable direction winds at 2 MPH (2 knots; 1.0 m/s)
Visibility: 6 or more miles 10+ km)
Ceiling: at least 12,000 feet AGL
Clouds: few clouds at 4500 feet AGL
Weather: no significant weather forecast for this period

 AIRPORT MAP

 RUNWAY INFORMATION
Runway 11 Runway length 10663 ft Runway width 148 ft
Runway elevation 30 ft Runway displaced threshold 0 ft Runway heading 121
Runway 29 Runway length 10663 ft Runway width 148 ft
Runway elevation 52 ft Runway displaced threshold 0 ft Runway heading 301

 AIRPORT FREQUENCIES
Type APP Name TONTOUTA A Frequency 119.7 MHZ
Type GND Name GND Frequency 121.7 MHZ
Type INFO Name TONTOUTA I Frequency 128.2 MHZ
Type MISC Name VDF Frequency 118.1 MHZ
Type TWR Name TONTOUTA T Frequency 118.1 MHZ

 AIRPORT NEAR NAVIGATION AIDS
Type NDB Name La Tontouta Frequency 338 KHZ
Type NDB Name La Tontouta Frequency 354 KHZ
Type VOR-DME Name La Tontouta Frequency 112900 KHZ
Type NDB Name La Tontouta Frequency 326 KHZ